sensor_id;sensor_type;location;lat;lon;timestamp;pressure;altitude;pressure_sealevel;temperature;humidity
60642;BME280;46837;52.446;-1.930;2023-01-01T00:00:09;98538.84;;;9.11;88.21
60642;BME280;46837;52.446;-1.930;2023-01-01T00:01:10;98542.45;;;9.06;88.20
60642;BME280;46837;52.446;-1.930;2023-01-01T00:02:09;98541.79;;;9.07;88.49
60642;BME280;46837;52.446;-1.930;2023-01-01T00:03:09;98543.42;;;9.07;88.53
60642;BME280;46837;52.446;-1.930;2023-01-01T00:04:12;98556.39;;;9.07;88.61
60642;BME280;46837;52.446;-1.930;2023-01-01T00:05:09;98553.07;;;9.10;88.61
60642;BME280;46837;52.446;-1.930;2023-01-01T00:06:12;98565.49;;;9.10;88.53
60642;BME280;46837;52.446;-1.930;2023-01-01T00:07:09;98557.97;;;9.10;88.47
60642;BME280;46837;52.446;-1.930;2023-01-01T00:08:09;98562.44;;;9.07;88.57
60642;BME280;46837;52.446;-1.930;2023-01-01T00:09:13;98553.43;;;9.08;88.66
60642;BME280;46837;52.446;-1.930;2023-01-01T00:10:13;98551.93;;;9.09;88.60
60642;BME280;46837;52.446;-1.930;2023-01-01T00:11:09;98558.36;;;9.10;88.56
60642;BME280;46837;52.446;-1.930;2023-01-01T00:12:09;98555.47;;;9.10;88.65
60642;BME280;46837;52.446;-1.930;2023-01-01T00:13:11;98554.95;;;9.09;88.63
60642;BME280;46837;52.446;-1.930;2023-01-01T00:14:09;98555.41;;;9.10;88.57
60642;BME280;46837;52.446;-1.930;2023-01-01T00:15:09;98551.43;;;9.08;88.62
60642;BME280;46837;52.446;-1.930;2023-01-01T00:16:10;98554.16;;;9.07;88.72
60642;BME280;46837;52.446;-1.930;2023-01-01T00:17:09;98558.42;;;9.06;88.76
60642;BME280;46837;52.446;-1.930;2023-01-01T00:18:09;98563.92;;;9.00;88.88
60642;BME280;46837;52.446;-1.930;2023-01-01T00:19:09;98564.02;;;9.04;88.95
60642;BME280;46837;52.446;-1.930;2023-01-01T00:20:09;98562.37;;;9.05;88.71
60642;BME280;46837;52.446;-1.930;2023-01-01T00:21:12;98561.72;;;9.05;88.74
60642;BME280;46837;52.446;-1.930;2023-01-01T00:22:09;98565.11;;;9.10;88.59
60642;BME280;46837;52.446;-1.930;2023-01-01T00:23:09;98572.50;;;9.08;88.33
60642;BME280;46837;52.446;-1.930;2023-01-01T00:24:09;98565.58;;;9.09;88.27
60642;BME280;46837;52.446;-1.930;2023-01-01T00:25:09;98579.93;;;9.13;88.10
60642;BME280;46837;52.446;-1.930;2023-01-01T00:26:12;98567.44;;;9.14;87.98
60642;BME280;46837;52.446;-1.930;2023-01-01T00:27:09;98562.30;;;9.16;87.86
60642;BME280;46837;52.446;-1.930;2023-01-01T00:28:09;98579.53;;;9.15;87.73
60642;BME280;46837;52.446;-1.930;2023-01-01T00:29:09;98575.62;;;9.17;87.81
60642;BME280;46837;52.446;-1.930;2023-01-01T00:30:09;98578.39;;;9.21;87.62
60642;BME280;46837;52.446;-1.930;2023-01-01T00:31:10;98580.61;;;9.16;87.30
60642;BME280;46837;52.446;-1.930;2023-01-01T00:32:09;98577.62;;;9.15;87.25
60642;BME280;46837;52.446;-1.930;2023-01-01T00:33:09;98581.38;;;9.15;87.16
60642;BME280;46837;52.446;-1.930;2023-01-01T00:34:09;98582.20;;;9.18;87.10
60642;BME280;46837;52.446;-1.930;2023-01-01T00:35:11;98579.21;;;9.17;86.84
60642;BME280;46837;52.446;-1.930;2023-01-01T00:36:09;98579.04;;;9.18;86.79
60642;BME280;46837;52.446;-1.930;2023-01-01T00:37:09;98575.94;;;9.08;86.89
60642;BME280;46837;52.446;-1.930;2023-01-01T00:38:09;98581.30;;;9.10;86.78
60642;BME280;46837;52.446;-1.930;2023-01-01T00:39:09;98584.95;;;9.09;86.84
60642;BME280;46837;52.446;-1.930;2023-01-01T00:40:09;98573.28;;;9.10;86.68
60642;BME280;46837;52.446;-1.930;2023-01-01T00:41:09;98579.44;;;9.07;86.61
60642;BME280;46837;52.446;-1.930;2023-01-01T00:42:09;98585.26;;;9.08;86.71
60642;BME280;46837;52.446;-1.930;2023-01-01T00:43:09;98584.44;;;9.08;86.48
60642;BME280;46837;52.446;-1.930;2023-01-01T00:44:09;98580.53;;;9.10;86.44
60642;BME280;46837;52.446;-1.930;2023-01-01T00:45:09;98585.31;;;9.08;86.18
60642;BME280;46837;52.446;-1.930;2023-01-01T00:46:09;98586.02;;;9.08;86.17
60642;BME280;46837;52.446;-1.930;2023-01-01T00:47:09;98578.42;;;9.02;86.09
60642;BME280;46837;52.446;-1.930;2023-01-01T00:48:09;98592.29;;;9.02;86.04
60642;BME280;46837;52.446;-1.930;2023-01-01T00:49:09;98594.14;;;9.01;86.03
60642;BME280;46837;52.446;-1.930;2023-01-01T00:50:09;98596.44;;;9.01;85.89
60642;BME280;46837;52.446;-1.930;2023-01-01T00:51:10;98592.53;;;8.99;85.78
60642;BME280;46837;52.446;-1.930;2023-01-01T00:52:09;98604.34;;;8.96;85.67
60642;BME280;46837;52.446;-1.930;2023-01-01T00:53:09;98601.80;;;8.99;85.69
60642;BME280;46837;52.446;-1.930;2023-01-01T00:54:09;98601.71;;;9.02;85.61
60642;BME280;46837;52.446;-1.930;2023-01-01T00:55:09;98614.27;;;9.06;85.64
60642;BME280;46837;52.446;-1.930;2023-01-01T00:56:09;98603.62;;;8.98;84.83
60642;BME280;46837;52.446;-1.930;2023-01-01T00:57:09;98607.27;;;9.01;85.12
60642;BME280;46837;52.446;-1.930;2023-01-01T00:58:09;98614.31;;;9.04;85.09
60642;BME280;46837;52.446;-1.930;2023-01-01T00:59:09;98608.70;;;9.01;84.94
60642;BME280;46837;52.446;-1.930;2023-01-01T01:00:09;98616.04;;;8.98;84.83
60642;BME280;46837;52.446;-1.930;2023-01-01T01:01:09;98613.02;;;9.03;84.94
60642;BME280;46837;52.446;-1.930;2023-01-01T01:02:09;98602.15;;;9.01;84.68
60642;BME280;46837;52.446;-1.930;2023-01-01T01:03:09;98624.78;;;9.00;84.38
60642;BME280;46837;52.446;-1.930;2023-01-01T01:04:09;98621.01;;;9.01;84.34
60642;BME280;46837;52.446;-1.930;2023-01-01T01:05:09;98623.20;;;9.00;84.35
60642;BME280;46837;52.446;-1.930;2023-01-01T01:06:11;98620.30;;;9.01;84.38
60642;BME280;46837;52.446;-1.930;2023-01-01T01:07:09;98630.27;;;9.01;84.07
60642;BME280;46837;52.446;-1.930;2023-01-01T01:08:09;98633.23;;;9.03;83.80
60642;BME280;46837;52.446;-1.930;2023-01-01T01:09:09;98628.05;;;9.00;83.68
60642;BME280;46837;52.446;-1.930;2023-01-01T01:10:09;98636.64;;;9.01;83.75
60642;BME280;46837;52.446;-1.930;2023-01-01T01:11:17;98639.34;;;9.06;83.45
60642;BME280;46837;52.446;-1.930;2023-01-01T01:12:09;98640.95;;;9.08;83.46
60642;BME280;46837;52.446;-1.930;2023-01-01T01:13:09;98645.30;;;9.08;83.08
60642;BME280;46837;52.446;-1.930;2023-01-01T01:14:09;98635.88;;;9.02;82.90
60642;BME280;46837;52.446;-1.930;2023-01-01T01:15:09;98646.15;;;9.02;83.12
60642;BME280;46837;52.446;-1.930;2023-01-01T01:16:16;98643.52;;;9.04;83.00
60642;BME280;46837;52.446;-1.930;2023-01-01T01:17:09;98651.65;;;9.06;82.99
60642;BME280;46837;52.446;-1.930;2023-01-01T01:18:09;98650.02;;;9.09;83.02
60642;BME280;46837;52.446;-1.930;2023-01-01T01:19:09;98655.96;;;9.13;82.78
60642;BME280;46837;52.446;-1.930;2023-01-01T01:20:09;98652.78;;;9.12;82.79
60642;BME280;46837;52.446;-1.930;2023-01-01T01:21:09;98650.91;;;9.16;82.81
60642;BME280;46837;52.446;-1.930;2023-01-01T01:22:09;98660.62;;;9.15;82.77
60642;BME280;46837;52.446;-1.930;2023-01-01T01:23:09;98657.80;;;9.14;82.48
60642;BME280;46837;52.446;-1.930;2023-01-01T01:24:09;98655.79;;;9.13;82.53
60642;BME280;46837;52.446;-1.930;2023-01-01T01:25:09;98669.55;;;9.12;82.50
60642;BME280;46837;52.446;-1.930;2023-01-01T01:26:14;98662.16;;;9.11;82.48
60642;BME280;46837;52.446;-1.930;2023-01-01T01:27:09;98665.43;;;9.10;82.43
60642;BME280;46837;52.446;-1.930;2023-01-01T01:28:09;98661.28;;;9.08;82.39
60642;BME280;46837;52.446;-1.930;2023-01-01T01:29:09;98663.19;;;9.07;82.16
60642;BME280;46837;52.446;-1.930;2023-01-01T01:30:09;98662.69;;;9.05;82.19
60642;BME280;46837;52.446;-1.930;2023-01-01T01:31:09;98658.06;;;9.04;82.09
60642;BME280;46837;52.446;-1.930;2023-01-01T01:32:09;98669.14;;;9.02;82.12
60642;BME280;46837;52.446;-1.930;2023-01-01T01:33:09;98667.39;;;9.00;82.06
60642;BME280;46837;52.446;-1.930;2023-01-01T01:34:09;98669.88;;;8.97;82.02
60642;BME280;46837;52.446;-1.930;2023-01-01T01:35:09;98669.55;;;8.98;82.17
60642;BME280;46837;52.446;-1.930;2023-01-01T01:36:09;98669.13;;;8.95;82.14
60642;BME280;46837;52.446;-1.930;2023-01-01T01:37:09;98673.01;;;8.99;82.22
60642;BME280;46837;52.446;-1.930;2023-01-01T01:38:09;98673.48;;;8.97;82.00
60642;BME280;46837;52.446;-1.930;2023-01-01T01:39:10;98674.68;;;8.96;81.92
60642;BME280;46837;52.446;-1.930;2023-01-01T01:40:09;98673.09;;;8.94;82.08
60642;BME280;46837;52.446;-1.930;2023-01-01T01:41:09;98674.30;;;8.92;82.02
60642;BME280;46837;52.446;-1.930;2023-01-01T01:42:14;98678.61;;;8.92;82.15
60642;BME280;46837;52.446;-1.930;2023-01-01T01:45:09;98683.61;;;8.93;82.00
60642;BME280;46837;52.446;-1.930;2023-01-01T01:46:13;98689.92;;;8.94;82.16
60642;BME280;46837;52.446;-1.930;2023-01-01T01:47:13;98687.44;;;8.95;82.06
60642;BME280;46837;52.446;-1.930;2023-01-01T01:48:09;98692.55;;;8.97;82.10
60642;BME280;46837;52.446;-1.930;2023-01-01T01:49:16;98688.78;;;8.98;81.85
60642;BME280;46837;52.446;-1.930;2023-01-01T01:51:09;98702.89;;;8.93;81.95
60642;BME280;46837;52.446;-1.930;2023-01-01T01:52:09;98697.93;;;8.94;81.94
60642;BME280;46837;52.446;-1.930;2023-01-01T01:54:11;98712.49;;;8.92;82.08
60642;BME280;46837;52.446;-1.930;2023-01-01T01:55:09;98705.55;;;8.87;81.82
60642;BME280;46837;52.446;-1.930;2023-01-01T01:56:11;98715.32;;;8.88;81.90
60642;BME280;46837;52.446;-1.930;2023-01-01T01:57:09;98711.87;;;8.87;81.96
60642;BME280;46837;52.446;-1.930;2023-01-01T01:58:09;98711.36;;;8.84;81.97
60642;BME280;46837;52.446;-1.930;2023-01-01T01:59:09;98709.64;;;8.82;81.91
60642;BME280;46837;52.446;-1.930;2023-01-01T02:00:09;98708.92;;;8.79;81.91
60642;BME280;46837;52.446;-1.930;2023-01-01T02:01:09;98706.46;;;8.76;82.00
60642;BME280;46837;52.446;-1.930;2023-01-01T02:02:17;98713.76;;;8.75;82.09
60642;BME280;46837;52.446;-1.930;2023-01-01T02:03:17;98714.69;;;8.79;82.25
60642;BME280;46837;52.446;-1.930;2023-01-01T02:04:09;98710.70;;;8.77;82.01
60642;BME280;46837;52.446;-1.930;2023-01-01T02:05:09;98709.69;;;8.78;82.01
60642;BME280;46837;52.446;-1.930;2023-01-01T02:06:09;98714.36;;;8.76;82.01
60642;BME280;46837;52.446;-1.930;2023-01-01T02:07:09;98711.02;;;8.72;82.11
60642;BME280;46837;52.446;-1.930;2023-01-01T02:08:09;98708.67;;;8.74;82.22
60642;BME280;46837;52.446;-1.930;2023-01-01T02:09:09;98717.82;;;8.69;81.98
60642;BME280;46837;52.446;-1.930;2023-01-01T02:10:09;98715.70;;;8.69;82.20
60642;BME280;46837;52.446;-1.930;2023-01-01T02:11:09;98716.36;;;8.68;82.08
60642;BME280;46837;52.446;-1.930;2023-01-01T02:12:09;98724.67;;;8.65;82.25
60642;BME280;46837;52.446;-1.930;2023-01-01T02:13:09;98722.55;;;8.60;82.20
60642;BME280;46837;52.446;-1.930;2023-01-01T02:14:09;98715.29;;;8.59;82.39
60642;BME280;46837;52.446;-1.930;2023-01-01T02:15:09;98724.75;;;8.55;82.51
60642;BME280;46837;52.446;-1.930;2023-01-01T02:17:15;98732.97;;;8.55;82.54
60642;BME280;46837;52.446;-1.930;2023-01-01T02:18:15;98737.09;;;8.53;82.63
60642;BME280;46837;52.446;-1.930;2023-01-01T02:19:17;98733.72;;;8.52;82.51
60642;BME280;46837;52.446;-1.930;2023-01-01T02:20:21;98737.64;;;8.51;82.49
60642;BME280;46837;52.446;-1.930;2023-01-01T02:22:17;98740.47;;;8.52;82.42
60642;BME280;46837;52.446;-1.930;2023-01-01T02:24:20;98745.15;;;8.52;82.30
60642;BME280;46837;52.446;-1.930;2023-01-01T02:28:28;98754.18;;;8.47;82.36
60642;BME280;46837;52.446;-1.930;2023-01-01T02:30:09;98759.71;;;8.39;82.27
60642;BME280;46837;52.446;-1.930;2023-01-01T02:31:10;98760.21;;;8.43;82.31
60642;BME280;46837;52.446;-1.930;2023-01-01T02:32:11;98757.58;;;8.40;82.19
60642;BME280;46837;52.446;-1.930;2023-01-01T02:33:11;98760.40;;;8.41;82.17
60642;BME280;46837;52.446;-1.930;2023-01-01T02:34:10;98758.39;;;8.41;81.98
60642;BME280;46837;52.446;-1.930;2023-01-01T02:35:20;98760.08;;;8.41;81.87
60642;BME280;46837;52.446;-1.930;2023-01-01T02:36:09;98758.47;;;8.43;81.68
60642;BME280;46837;52.446;-1.930;2023-01-01T02:37:09;98757.46;;;8.41;81.66
60642;BME280;46837;52.446;-1.930;2023-01-01T02:39:09;98746.75;;;8.45;81.48
60642;BME280;46837;52.446;-1.930;2023-01-01T02:40:09;98750.66;;;8.41;81.20
60642;BME280;46837;52.446;-1.930;2023-01-01T02:41:11;98753.09;;;8.38;81.03
60642;BME280;46837;52.446;-1.930;2023-01-01T02:42:09;98760.24;;;8.41;81.10
60642;BME280;46837;52.446;-1.930;2023-01-01T02:43:09;98759.81;;;8.41;80.89
60642;BME280;46837;52.446;-1.930;2023-01-01T02:44:09;98760.52;;;8.41;80.78
60642;BME280;46837;52.446;-1.930;2023-01-01T02:45:09;98765.69;;;8.40;80.92
60642;BME280;46837;52.446;-1.930;2023-01-01T02:46:12;98764.27;;;8.41;80.90
60642;BME280;46837;52.446;-1.930;2023-01-01T02:47:13;98757.85;;;8.40;80.55
60642;BME280;46837;52.446;-1.930;2023-01-01T02:49:09;98765.04;;;8.40;80.62
60642;BME280;46837;52.446;-1.930;2023-01-01T02:50:15;98766.91;;;8.42;80.64
60642;BME280;46837;52.446;-1.930;2023-01-01T02:52:21;98764.77;;;8.39;80.38
60642;BME280;46837;52.446;-1.930;2023-01-01T02:56:21;98768.82;;;8.39;80.50
60642;BME280;46837;52.446;-1.930;2023-01-01T02:57:21;98775.27;;;8.37;80.61
60642;BME280;46837;52.446;-1.930;2023-01-01T03:00:13;98776.82;;;8.35;80.63
60642;BME280;46837;52.446;-1.930;2023-01-01T03:01:18;98781.72;;;8.35;80.74
60642;BME280;46837;52.446;-1.930;2023-01-01T03:07:24;98789.54;;;8.31;80.94
60642;BME280;46837;52.446;-1.930;2023-01-01T03:08:14;98792.49;;;8.31;80.99
60642;BME280;46837;52.446;-1.930;2023-01-01T03:10:18;98793.80;;;8.28;81.22
60642;BME280;46837;52.446;-1.930;2023-01-01T03:11:10;98794.56;;;8.29;81.34
60642;BME280;46837;52.446;-1.930;2023-01-01T03:12:17;98792.26;;;8.25;81.53
60642;BME280;46837;52.446;-1.930;2023-01-01T03:15:22;98796.43;;;8.22;81.81
60642;BME280;46837;52.446;-1.930;2023-01-01T03:17:17;98798.85;;;8.20;82.00
60642;BME280;46837;52.446;-1.930;2023-01-01T03:19:20;98800.68;;;8.16;82.17
60642;BME280;46837;52.446;-1.930;2023-01-01T03:20:15;98803.43;;;8.14;82.21
60642;BME280;46837;52.446;-1.930;2023-01-01T03:21:09;98800.06;;;8.12;82.39
60642;BME280;46837;52.446;-1.930;2023-01-01T03:22:11;98800.28;;;8.12;82.33
60642;BME280;46837;52.446;-1.930;2023-01-01T03:23:11;98800.77;;;8.11;82.24
60642;BME280;46837;52.446;-1.930;2023-01-01T03:25:18;98797.42;;;8.11;82.23
60642;BME280;46837;52.446;-1.930;2023-01-01T03:26:12;98801.32;;;8.11;82.42
60642;BME280;46837;52.446;-1.930;2023-01-01T03:27:13;98806.21;;;8.12;82.21
60642;BME280;46837;52.446;-1.930;2023-01-01T03:28:55;98802.73;;;8.12;82.12
60642;BME280;46837;52.446;-1.930;2023-01-01T03:29:09;98799.20;;;8.11;81.99
60642;BME280;46837;52.446;-1.930;2023-01-01T03:30:10;98807.54;;;8.10;82.06
60642;BME280;46837;52.446;-1.930;2023-01-01T03:31:09;98812.74;;;8.11;82.03
60642;BME280;46837;52.446;-1.930;2023-01-01T03:32:11;98809.61;;;8.09;82.01
60642;BME280;46837;52.446;-1.930;2023-01-01T03:33:24;98814.18;;;8.10;81.99
60642;BME280;46837;52.446;-1.930;2023-01-01T03:34:13;98817.45;;;8.09;81.75
60642;BME280;46837;52.446;-1.930;2023-01-01T03:35:09;98822.45;;;8.10;81.70
60642;BME280;46837;52.446;-1.930;2023-01-01T03:36:13;98820.27;;;8.10;81.67
60642;BME280;46837;52.446;-1.930;2023-01-01T03:37:11;98824.71;;;8.06;81.77
60642;BME280;46837;52.446;-1.930;2023-01-01T03:39:12;98825.45;;;8.09;81.69
60642;BME280;46837;52.446;-1.930;2023-01-01T03:40:10;98826.86;;;8.07;81.65
60642;BME280;46837;52.446;-1.930;2023-01-01T03:41:14;98830.15;;;8.07;81.68
60642;BME280;46837;52.446;-1.930;2023-01-01T03:43:13;98828.71;;;8.10;81.61
60642;BME280;46837;52.446;-1.930;2023-01-01T03:44:34;98826.40;;;8.11;81.52
60642;BME280;46837;52.446;-1.930;2023-01-01T03:45:21;98825.23;;;8.03;81.55
60642;BME280;46837;52.446;-1.930;2023-01-01T03:46:09;98827.48;;;8.07;82.01
60642;BME280;46837;52.446;-1.930;2023-01-01T03:47:09;98831.21;;;8.08;81.88
60642;BME280;46837;52.446;-1.930;2023-01-01T03:48:09;98829.15;;;8.07;81.92
60642;BME280;46837;52.446;-1.930;2023-01-01T03:49:09;98828.84;;;8.07;81.99
60642;BME280;46837;52.446;-1.930;2023-01-01T03:50:09;98832.36;;;8.08;82.09
60642;BME280;46837;52.446;-1.930;2023-01-01T03:51:14;98831.62;;;8.06;82.29
60642;BME280;46837;52.446;-1.930;2023-01-01T03:53:23;98839.76;;;8.07;82.33
60642;BME280;46837;52.446;-1.930;2023-01-01T03:54:18;98838.93;;;8.10;82.48
60642;BME280;46837;52.446;-1.930;2023-01-01T03:56:15;98846.42;;;8.11;82.49
60642;BME280;46837;52.446;-1.930;2023-01-01T03:57:20;98846.72;;;8.09;82.63
60642;BME280;46837;52.446;-1.930;2023-01-01T04:00:14;98840.38;;;8.12;82.87
60642;BME280;46837;52.446;-1.930;2023-01-01T04:01:14;98850.85;;;8.17;83.00
60642;BME280;46837;52.446;-1.930;2023-01-01T04:02:10;98846.77;;;8.18;83.09
60642;BME280;46837;52.446;-1.930;2023-01-01T04:03:14;98848.48;;;8.18;83.07
60642;BME280;46837;52.446;-1.930;2023-01-01T04:04:09;98850.98;;;8.20;83.28
60642;BME280;46837;52.446;-1.930;2023-01-01T04:05:09;98849.16;;;8.17;83.47
60642;BME280;46837;52.446;-1.930;2023-01-01T04:06:09;98851.04;;;8.21;83.55
60642;BME280;46837;52.446;-1.930;2023-01-01T04:07:09;98852.04;;;8.24;83.31
60642;BME280;46837;52.446;-1.930;2023-01-01T04:08:09;98853.15;;;8.25;83.18
60642;BME280;46837;52.446;-1.930;2023-01-01T04:09:15;98849.40;;;8.26;83.16
60642;BME280;46837;52.446;-1.930;2023-01-01T04:10:13;98860.50;;;8.25;83.24
60642;BME280;46837;52.446;-1.930;2023-01-01T04:11:18;98856.34;;;8.23;83.20
60642;BME280;46837;52.446;-1.930;2023-01-01T04:12:09;98854.16;;;8.23;83.37
60642;BME280;46837;52.446;-1.930;2023-01-01T04:13:09;98862.65;;;8.24;83.43
60642;BME280;46837;52.446;-1.930;2023-01-01T04:14:09;98859.46;;;8.27;83.41
60642;BME280;46837;52.446;-1.930;2023-01-01T04:15:09;98868.50;;;8.27;83.51
60642;BME280;46837;52.446;-1.930;2023-01-01T04:16:09;98877.78;;;8.29;83.42
60642;BME280;46837;52.446;-1.930;2023-01-01T04:17:10;98877.99;;;8.31;83.54
60642;BME280;46837;52.446;-1.930;2023-01-01T04:18:09;98869.91;;;8.32;83.43
60642;BME280;46837;52.446;-1.930;2023-01-01T04:19:09;98869.80;;;8.33;83.69
60642;BME280;46837;52.446;-1.930;2023-01-01T04:20:09;98860.71;;;8.33;83.72
60642;BME280;46837;52.446;-1.930;2023-01-01T04:21:10;98866.10;;;8.32;83.72
60642;BME280;46837;52.446;-1.930;2023-01-01T04:22:09;98867.51;;;8.33;83.57
60642;BME280;46837;52.446;-1.930;2023-01-01T04:23:09;98863.54;;;8.34;83.61
60642;BME280;46837;52.446;-1.930;2023-01-01T04:24:09;98859.52;;;8.32;83.54
60642;BME280;46837;52.446;-1.930;2023-01-01T04:25:09;98861.99;;;8.30;83.67
60642;BME280;46837;52.446;-1.930;2023-01-01T04:26:15;98870.70;;;8.29;83.71
60642;BME280;46837;52.446;-1.930;2023-01-01T04:27:09;98870.86;;;8.31;83.69
60642;BME280;46837;52.446;-1.930;2023-01-01T04:28:09;98873.02;;;8.27;83.62
60642;BME280;46837;52.446;-1.930;2023-01-01T04:29:09;98876.80;;;8.29;83.64
60642;BME280;46837;52.446;-1.930;2023-01-01T04:30:09;98877.72;;;8.29;83.64
60642;BME280;46837;52.446;-1.930;2023-01-01T04:31:09;98871.93;;;8.25;83.51
60642;BME280;46837;52.446;-1.930;2023-01-01T04:32:09;98875.11;;;8.24;83.69
60642;BME280;46837;52.446;-1.930;2023-01-01T04:33:09;98878.73;;;8.26;83.79
60642;BME280;46837;52.446;-1.930;2023-01-01T04:34:09;98870.19;;;8.25;83.75
60642;BME280;46837;52.446;-1.930;2023-01-01T04:35:09;98872.36;;;8.21;83.96
60642;BME280;46837;52.446;-1.930;2023-01-01T04:36:09;98867.77;;;8.23;84.00
60642;BME280;46837;52.446;-1.930;2023-01-01T04:37:09;98872.04;;;8.21;84.05
60642;BME280;46837;52.446;-1.930;2023-01-01T04:38:12;98870.90;;;8.18;84.07
60642;BME280;46837;52.446;-1.930;2023-01-01T04:39:09;98872.86;;;8.19;83.98
60642;BME280;46837;52.446;-1.930;2023-01-01T04:40:13;98878.20;;;8.12;84.04
60642;BME280;46837;52.446;-1.930;2023-01-01T04:41:09;98876.83;;;8.13;84.15
60642;BME280;46837;52.446;-1.930;2023-01-01T04:42:09;98881.54;;;8.07;84.31
60642;BME280;46837;52.446;-1.930;2023-01-01T04:43:09;98882.85;;;8.09;84.42
60642;BME280;46837;52.446;-1.930;2023-01-01T04:44:09;98888.26;;;8.05;84.48
60642;BME280;46837;52.446;-1.930;2023-01-01T04:45:09;98887.68;;;7.93;84.89
60642;BME280;46837;52.446;-1.930;2023-01-01T04:46:09;98882.00;;;7.97;84.86
60642;BME280;46837;52.446;-1.930;2023-01-01T04:47:09;98883.63;;;7.99;84.72
60642;BME280;46837;52.446;-1.930;2023-01-01T04:48:09;98884.80;;;7.95;84.67
60642;BME280;46837;52.446;-1.930;2023-01-01T04:49:09;98884.88;;;7.98;84.73
60642;BME280;46837;52.446;-1.930;2023-01-01T04:50:09;98884.94;;;7.97;84.65
60642;BME280;46837;52.446;-1.930;2023-01-01T04:51:09;98884.99;;;8.00;84.63
60642;BME280;46837;52.446;-1.930;2023-01-01T04:52:09;98886.02;;;7.99;84.53
60642;BME280;46837;52.446;-1.930;2023-01-01T04:53:09;98884.04;;;7.96;84.71
60642;BME280;46837;52.446;-1.930;2023-01-01T04:54:09;98881.81;;;7.94;84.71
60642;BME280;46837;52.446;-1.930;2023-01-01T04:55:09;98886.65;;;7.94;84.91
60642;BME280;46837;52.446;-1.930;2023-01-01T04:56:12;98885.02;;;7.94;84.75
60642;BME280;46837;52.446;-1.930;2023-01-01T04:57:09;98881.09;;;7.89;84.97
60642;BME280;46837;52.446;-1.930;2023-01-01T04:58:09;98886.13;;;7.92;85.08
60642;BME280;46837;52.446;-1.930;2023-01-01T04:59:09;98890.02;;;7.94;84.92
60642;BME280;46837;52.446;-1.930;2023-01-01T05:00:09;98883.68;;;7.91;84.97
60642;BME280;46837;52.446;-1.930;2023-01-01T05:02:09;98880.69;;;7.85;85.36
60642;BME280;46837;52.446;-1.930;2023-01-01T05:03:09;98879.22;;;7.84;85.41
60642;BME280;46837;52.446;-1.930;2023-01-01T05:04:11;98877.86;;;7.85;85.47
60642;BME280;46837;52.446;-1.930;2023-01-01T05:05:09;98885.09;;;7.83;85.51
60642;BME280;46837;52.446;-1.930;2023-01-01T05:06:10;98885.44;;;7.81;85.62
60642;BME280;46837;52.446;-1.930;2023-01-01T05:07:09;98885.03;;;7.78;85.73
60642;BME280;46837;52.446;-1.930;2023-01-01T05:08:09;98886.39;;;7.77;85.90
60642;BME280;46837;52.446;-1.930;2023-01-01T05:09:11;98891.82;;;7.77;86.06
60642;BME280;46837;52.446;-1.930;2023-01-01T05:10:09;98889.00;;;7.76;86.14
60642;BME280;46837;52.446;-1.930;2023-01-01T05:11:13;98890.00;;;7.75;86.30
60642;BME280;46837;52.446;-1.930;2023-01-01T05:12:09;98889.73;;;7.74;86.37
60642;BME280;46837;52.446;-1.930;2023-01-01T05:13:09;98885.43;;;7.73;86.33
60642;BME280;46837;52.446;-1.930;2023-01-01T05:14:09;98887.28;;;7.75;86.31
60642;BME280;46837;52.446;-1.930;2023-01-01T05:15:09;98887.66;;;7.74;86.24
60642;BME280;46837;52.446;-1.930;2023-01-01T05:16:11;98887.85;;;7.71;86.36
60642;BME280;46837;52.446;-1.930;2023-01-01T05:17:09;98888.55;;;7.70;86.71
60642;BME280;46837;52.446;-1.930;2023-01-01T05:18:09;98885.51;;;7.69;86.47
60642;BME280;46837;52.446;-1.930;2023-01-01T05:19:09;98891.51;;;7.67;86.63
60642;BME280;46837;52.446;-1.930;2023-01-01T05:20:09;98896.64;;;7.62;86.79
60642;BME280;46837;52.446;-1.930;2023-01-01T05:21:16;98896.21;;;7.62;86.83
60642;BME280;46837;52.446;-1.930;2023-01-01T05:22:09;98896.71;;;7.61;86.84
60642;BME280;46837;52.446;-1.930;2023-01-01T05:23:09;98897.51;;;7.63;86.79
60642;BME280;46837;52.446;-1.930;2023-01-01T05:24:09;98902.64;;;7.61;86.71
60642;BME280;46837;52.446;-1.930;2023-01-01T05:25:09;98897.31;;;7.61;86.63
60642;BME280;46837;52.446;-1.930;2023-01-01T05:26:12;98904.50;;;7.65;86.50
60642;BME280;46837;52.446;-1.930;2023-01-01T05:27:09;98905.14;;;7.61;86.42
60642;BME280;46837;52.446;-1.930;2023-01-01T05:28:09;98910.23;;;7.63;86.42
60642;BME280;46837;52.446;-1.930;2023-01-01T05:29:09;98904.90;;;7.63;86.32
60642;BME280;46837;52.446;-1.930;2023-01-01T05:30:09;98914.26;;;7.64;86.15
60642;BME280;46837;52.446;-1.930;2023-01-01T05:32:09;98918.75;;;7.58;86.11
60642;BME280;46837;52.446;-1.930;2023-01-01T05:33:09;98919.84;;;7.57;86.15
60642;BME280;46837;52.446;-1.930;2023-01-01T05:34:09;98924.09;;;7.52;86.30
60642;BME280;46837;52.446;-1.930;2023-01-01T05:35:09;98927.96;;;7.54;86.22
60642;BME280;46837;52.446;-1.930;2023-01-01T05:36:10;98923.86;;;7.56;86.05
60642;BME280;46837;52.446;-1.930;2023-01-01T05:37:09;98928.50;;;7.54;85.97
60642;BME280;46837;52.446;-1.930;2023-01-01T05:38:09;98931.27;;;7.54;85.88
60642;BME280;46837;52.446;-1.930;2023-01-01T05:39:10;98926.23;;;7.50;85.81
60642;BME280;46837;52.446;-1.930;2023-01-01T05:40:09;98926.07;;;7.49;85.98
60642;BME280;46837;52.446;-1.930;2023-01-01T05:41:09;98931.40;;;7.51;85.88
60642;BME280;46837;52.446;-1.930;2023-01-01T05:42:09;98939.38;;;7.54;85.72
60642;BME280;46837;52.446;-1.930;2023-01-01T05:43:09;98942.57;;;7.51;85.63
60642;BME280;46837;52.446;-1.930;2023-01-01T05:44:09;98940.52;;;7.54;85.59
60642;BME280;46837;52.446;-1.930;2023-01-01T05:45:09;98947.67;;;7.55;85.47
60642;BME280;46837;52.446;-1.930;2023-01-01T05:46:11;98941.73;;;7.50;85.45
60642;BME280;46837;52.446;-1.930;2023-01-01T05:47:09;98938.61;;;7.53;85.32
60642;BME280;46837;52.446;-1.930;2023-01-01T05:48:09;98936.33;;;7.54;85.23
60642;BME280;46837;52.446;-1.930;2023-01-01T05:49:10;98947.13;;;7.57;85.18
60642;BME280;46837;52.446;-1.930;2023-01-01T05:50:09;98933.75;;;7.56;85.01
60642;BME280;46837;52.446;-1.930;2023-01-01T05:51:13;98928.64;;;7.58;84.99
60642;BME280;46837;52.446;-1.930;2023-01-01T05:52:09;98923.95;;;7.60;84.83
60642;BME280;46837;52.446;-1.930;2023-01-01T05:53:09;98938.18;;;7.62;84.76
60642;BME280;46837;52.446;-1.930;2023-01-01T05:54:09;98948.55;;;7.65;84.75
60642;BME280;46837;52.446;-1.930;2023-01-01T05:55:09;98944.48;;;7.64;84.62